sensor_id;sensor_type;location;lat;lon;timestamp;P1;durP1;ratioP1;P2;durP2;ratioP2
15077;SDS011;7638;49.760;8.646;2023-04-24T00:00:58;0.87;;;0.87;;
15077;SDS011;7638;49.760;8.646;2023-04-24T00:03:26;0.73;;;0.70;;
15077;SDS011;7638;49.760;8.646;2023-04-24T00:05:53;3.90;;;1.00;;
15077;SDS011;7638;49.760;8.646;2023-04-24T00:08:19;5.00;;;1.03;;
15077;SDS011;7638;49.760;8.646;2023-04-24T00:10:46;1.03;;;0.80;;
15077;SDS011;7638;49.760;8.646;2023-04-24T00:13:12;1.80;;;0.90;;
15077;SDS011;7638;49.760;8.646;2023-04-24T00:15:38;2.33;;;1.13;;
15077;SDS011;7638;49.760;8.646;2023-04-24T00:18:04;1.40;;;1.00;;
15077;SDS011;7638;49.760;8.646;2023-04-24T00:20:30;2.27;;;0.90;;
15077;SDS011;7638;49.760;8.646;2023-04-24T00:23:00;1.87;;;1.00;;
15077;SDS011;7638;49.760;8.646;2023-04-24T00:25:26;1.40;;;0.73;;
15077;SDS011;7638;49.760;8.646;2023-04-24T00:27:52;1.40;;;1.07;;
15077;SDS011;7638;49.760;8.646;2023-04-24T00:30:18;1.37;;;1.00;;
15077;SDS011;7638;49.760;8.646;2023-04-24T00:32:44;0.80;;;0.80;;
15077;SDS011;7638;49.760;8.646;2023-04-24T00:35:10;2.70;;;1.23;;
15077;SDS011;7638;49.760;8.646;2023-04-24T00:37:36;0.70;;;0.70;;
15077;SDS011;7638;49.760;8.646;2023-04-24T00:40:02;1.03;;;0.90;;
15077;SDS011;7638;49.760;8.646;2023-04-24T00:42:28;1.27;;;0.60;;
15077;SDS011;7638;49.760;8.646;2023-04-24T00:44:55;5.10;;;1.00;;
15077;SDS011;7638;49.760;8.646;2023-04-24T00:47:24;1.53;;;0.70;;
15077;SDS011;7638;49.760;8.646;2023-04-24T00:49:51;1.60;;;1.00;;
15077;SDS011;7638;49.760;8.646;2023-04-24T00:52:16;1.80;;;0.90;;
15077;SDS011;7638;49.760;8.646;2023-04-24T00:54:43;0.97;;;0.80;;
15077;SDS011;7638;49.760;8.646;2023-04-24T00:57:10;0.70;;;0.70;;
15077;SDS011;7638;49.760;8.646;2023-04-24T00:59:36;0.80;;;0.63;;
15077;SDS011;7638;49.760;8.646;2023-04-24T01:02:02;1.30;;;0.80;;
15077;SDS011;7638;49.760;8.646;2023-04-24T01:04:28;3.70;;;0.80;;
15077;SDS011;7638;49.760;8.646;2023-04-24T01:06:54;1.43;;;0.80;;
15077;SDS011;7638;49.760;8.646;2023-04-24T01:09:21;2.60;;;0.90;;
15077;SDS011;7638;49.760;8.646;2023-04-24T01:11:47;1.13;;;0.80;;
15077;SDS011;7638;49.760;8.646;2023-04-24T01:14:13;0.83;;;0.73;;
15077;SDS011;7638;49.760;8.646;2023-04-24T01:16:39;2.67;;;0.97;;
15077;SDS011;7638;49.760;8.646;2023-04-24T01:19:06;2.70;;;0.90;;
15077;SDS011;7638;49.760;8.646;2023-04-24T01:21:34;8.87;;;1.37;;
15077;SDS011;7638;49.760;8.646;2023-04-24T01:24:01;2.63;;;0.90;;
15077;SDS011;7638;49.760;8.646;2023-04-24T01:26:28;1.60;;;0.73;;
15077;SDS011;7638;49.760;8.646;2023-04-24T01:28:53;4.53;;;0.90;;
15077;SDS011;7638;49.760;8.646;2023-04-24T01:31:20;1.27;;;1.00;;
15077;SDS011;7638;49.760;8.646;2023-04-24T01:33:46;1.37;;;0.80;;
15077;SDS011;7638;49.760;8.646;2023-04-24T01:36:12;0.80;;;0.80;;
15077;SDS011;7638;49.760;8.646;2023-04-24T01:38:39;3.83;;;1.03;;
15077;SDS011;7638;49.760;8.646;2023-04-24T01:41:05;0.70;;;0.67;;
15077;SDS011;7638;49.760;8.646;2023-04-24T01:43:31;1.77;;;1.00;;
15077;SDS011;7638;49.760;8.646;2023-04-24T01:46:00;1.20;;;1.10;;
15077;SDS011;7638;49.760;8.646;2023-04-24T01:48:26;4.30;;;0.97;;
15077;SDS011;7638;49.760;8.646;2023-04-24T01:50:53;6.57;;;1.17;;
15077;SDS011;7638;49.760;8.646;2023-04-24T01:53:19;1.00;;;0.87;;
15077;SDS011;7638;49.760;8.646;2023-04-24T01:55:45;5.83;;;1.10;;
15077;SDS011;7638;49.760;8.646;2023-04-24T01:58:11;1.10;;;0.77;;
15077;SDS011;7638;49.760;8.646;2023-04-24T02:00:37;1.33;;;0.87;;
15077;SDS011;7638;49.760;8.646;2023-04-24T02:03:03;2.60;;;1.07;;
15077;SDS011;7638;49.760;8.646;2023-04-24T02:05:29;1.77;;;1.17;;
15077;SDS011;7638;49.760;8.646;2023-04-24T02:07:55;1.00;;;0.90;;
15077;SDS011;7638;49.760;8.646;2023-04-24T02:10:21;1.10;;;0.80;;
15077;SDS011;7638;49.760;8.646;2023-04-24T02:12:47;1.13;;;0.73;;
15077;SDS011;7638;49.760;8.646;2023-04-24T02:15:13;1.13;;;0.77;;
15077;SDS011;7638;49.760;8.646;2023-04-24T02:17:40;5.07;;;0.73;;
15077;SDS011;7638;49.760;8.646;2023-04-24T02:20:06;2.70;;;1.10;;
15077;SDS011;7638;49.760;8.646;2023-04-24T02:22:32;2.27;;;1.20;;
15077;SDS011;7638;49.760;8.646;2023-04-24T02:24:58;2.63;;;1.00;;
15077;SDS011;7638;49.760;8.646;2023-04-24T02:27:25;1.00;;;0.73;;
15077;SDS011;7638;49.760;8.646;2023-04-24T02:29:51;5.03;;;1.37;;
15077;SDS011;7638;49.760;8.646;2023-04-24T02:32:17;1.53;;;1.00;;
15077;SDS011;7638;49.760;8.646;2023-04-24T02:34:43;1.10;;;1.00;;
15077;SDS011;7638;49.760;8.646;2023-04-24T02:37:09;1.43;;;0.83;;
15077;SDS011;7638;49.760;8.646;2023-04-24T02:39:35;3.53;;;0.90;;
15077;SDS011;7638;49.760;8.646;2023-04-24T02:42:01;4.57;;;1.10;;
15077;SDS011;7638;49.760;8.646;2023-04-24T02:44:27;1.40;;;1.10;;
15077;SDS011;7638;49.760;8.646;2023-04-24T02:46:53;5.40;;;0.90;;
15077;SDS011;7638;49.760;8.646;2023-04-24T02:49:19;3.67;;;1.13;;
15077;SDS011;7638;49.760;8.646;2023-04-24T02:51:45;1.70;;;0.97;;
15077;SDS011;7638;49.760;8.646;2023-04-24T02:54:11;1.80;;;1.27;;
15077;SDS011;7638;49.760;8.646;2023-04-24T02:56:37;1.20;;;1.10;;
15077;SDS011;7638;49.760;8.646;2023-04-24T02:59:03;5.30;;;1.00;;
15077;SDS011;7638;49.760;8.646;2023-04-24T03:01:29;1.53;;;1.00;;
15077;SDS011;7638;49.760;8.646;2023-04-24T03:03:55;1.27;;;1.00;;
15077;SDS011;7638;49.760;8.646;2023-04-24T03:06:21;2.03;;;0.83;;
15077;SDS011;7638;49.760;8.646;2023-04-24T03:08:47;3.30;;;0.97;;
15077;SDS011;7638;49.760;8.646;2023-04-24T03:11:13;5.67;;;1.03;;
15077;SDS011;7638;49.760;8.646;2023-04-24T03:13:42;3.63;;;1.10;;
15077;SDS011;7638;49.760;8.646;2023-04-24T03:16:09;1.07;;;1.00;;
15077;SDS011;7638;49.760;8.646;2023-04-24T03:18:38;1.57;;;0.73;;
15077;SDS011;7638;49.760;8.646;2023-04-24T03:21:04;1.23;;;0.90;;
15077;SDS011;7638;49.760;8.646;2023-04-24T03:23:30;2.43;;;0.90;;
15077;SDS011;7638;49.760;8.646;2023-04-24T03:25:56;1.67;;;0.87;;
15077;SDS011;7638;49.760;8.646;2023-04-24T03:28:22;1.97;;;1.00;;
15077;SDS011;7638;49.760;8.646;2023-04-24T03:30:50;2.60;;;1.00;;
15077;SDS011;7638;49.760;8.646;2023-04-24T03:33:16;2.40;;;1.10;;
15077;SDS011;7638;49.760;8.646;2023-04-24T03:35:41;4.80;;;0.70;;
15077;SDS011;7638;49.760;8.646;2023-04-24T03:38:07;0.90;;;0.70;;
15077;SDS011;7638;49.760;8.646;2023-04-24T03:40:33;1.27;;;0.80;;
15077;SDS011;7638;49.760;8.646;2023-04-24T03:43:00;3.30;;;1.87;;
15077;SDS011;7638;49.760;8.646;2023-04-24T03:45:26;1.40;;;1.30;;
15077;SDS011;7638;49.760;8.646;2023-04-24T03:47:52;0.80;;;0.80;;
15077;SDS011;7638;49.760;8.646;2023-04-24T03:50:18;1.77;;;1.07;;
15077;SDS011;7638;49.760;8.646;2023-04-24T03:52:45;1.00;;;0.90;;
15077;SDS011;7638;49.760;8.646;2023-04-24T03:55:11;2.00;;;1.10;;
15077;SDS011;7638;49.760;8.646;2023-04-24T03:57:39;1.23;;;1.10;;
15077;SDS011;7638;49.760;8.646;2023-04-24T04:00:05;1.60;;;1.33;;
15077;SDS011;7638;49.760;8.646;2023-04-24T04:02:37;2.40;;;1.30;;
15077;SDS011;7638;49.760;8.646;2023-04-24T04:05:03;1.57;;;1.43;;
15077;SDS011;7638;49.760;8.646;2023-04-24T04:07:30;1.57;;;1.20;;
15077;SDS011;7638;49.760;8.646;2023-04-24T04:09:55;2.83;;;1.63;;
15077;SDS011;7638;49.760;8.646;2023-04-24T04:12:21;1.27;;;1.10;;
15077;SDS011;7638;49.760;8.646;2023-04-24T04:14:47;2.00;;;1.43;;
15077;SDS011;7638;49.760;8.646;2023-04-24T04:17:13;1.50;;;1.40;;
15077;SDS011;7638;49.760;8.646;2023-04-24T04:19:40;1.80;;;1.30;;
15077;SDS011;7638;49.760;8.646;2023-04-24T04:22:06;1.23;;;1.13;;
15077;SDS011;7638;49.760;8.646;2023-04-24T04:24:33;1.40;;;1.30;;
15077;SDS011;7638;49.760;8.646;2023-04-24T04:27:02;3.80;;;1.63;;
15077;SDS011;7638;49.760;8.646;2023-04-24T04:29:30;1.30;;;1.20;;
15077;SDS011;7638;49.760;8.646;2023-04-24T04:31:56;2.67;;;1.30;;
15077;SDS011;7638;49.760;8.646;2023-04-24T04:34:23;1.60;;;1.50;;
15077;SDS011;7638;49.760;8.646;2023-04-24T04:36:49;3.20;;;1.27;;
15077;SDS011;7638;49.760;8.646;2023-04-24T04:39:15;2.00;;;1.80;;
15077;SDS011;7638;49.760;8.646;2023-04-24T04:41:41;2.47;;;1.40;;
15077;SDS011;7638;49.760;8.646;2023-04-24T04:44:07;2.60;;;1.40;;
15077;SDS011;7638;49.760;8.646;2023-04-24T04:46:34;5.07;;;1.73;;
15077;SDS011;7638;49.760;8.646;2023-04-24T04:49:02;2.13;;;1.20;;
15077;SDS011;7638;49.760;8.646;2023-04-24T04:51:28;2.57;;;1.50;;
15077;SDS011;7638;49.760;8.646;2023-04-24T04:53:55;1.80;;;1.70;;
15077;SDS011;7638;49.760;8.646;2023-04-24T04:56:20;1.60;;;1.37;;
15077;SDS011;7638;49.760;8.646;2023-04-24T04:58:47;2.10;;;1.63;;
15077;SDS011;7638;49.760;8.646;2023-04-24T05:01:18;5.93;;;1.80;;
15077;SDS011;7638;49.760;8.646;2023-04-24T05:03:44;2.13;;;1.60;;
15077;SDS011;7638;49.760;8.646;2023-04-24T05:06:10;2.00;;;1.70;;
15077;SDS011;7638;49.760;8.646;2023-04-24T05:08:36;4.90;;;1.67;;
15077;SDS011;7638;49.760;8.646;2023-04-24T05:11:02;4.47;;;1.77;;
15077;SDS011;7638;49.760;8.646;2023-04-24T05:13:28;1.90;;;1.60;;
15077;SDS011;7638;49.760;8.646;2023-04-24T05:15:54;2.70;;;1.60;;
15077;SDS011;7638;49.760;8.646;2023-04-24T05:18:20;2.47;;;2.07;;
15077;SDS011;7638;49.760;8.646;2023-04-24T05:20:47;4.77;;;1.87;;
15077;SDS011;7638;49.760;8.646;2023-04-24T05:23:13;4.97;;;2.00;;
15077;SDS011;7638;49.760;8.646;2023-04-24T05:25:39;2.43;;;2.23;;
15077;SDS011;7638;49.760;8.646;2023-04-24T05:28:06;3.87;;;1.83;;
15077;SDS011;7638;49.760;8.646;2023-04-24T05:30:32;2.43;;;1.70;;
15077;SDS011;7638;49.760;8.646;2023-04-24T05:32:58;3.70;;;2.17;;
15077;SDS011;7638;49.760;8.646;2023-04-24T05:35:24;4.93;;;2.07;;
15077;SDS011;7638;49.760;8.646;2023-04-24T05:37:50;2.90;;;2.13;;
15077;SDS011;7638;49.760;8.646;2023-04-24T05:40:16;2.27;;;2.07;;
15077;SDS011;7638;49.760;8.646;2023-04-24T05:42:42;2.47;;;2.27;;
15077;SDS011;7638;49.760;8.646;2023-04-24T05:45:09;2.00;;;1.80;;
15077;SDS011;7638;49.760;8.646;2023-04-24T05:47:39;3.60;;;2.00;;
15077;SDS011;7638;49.760;8.646;2023-04-24T05:50:05;4.97;;;2.30;;
15077;SDS011;7638;49.760;8.646;2023-04-24T05:52:32;4.07;;;2.07;;
15077;SDS011;7638;49.760;8.646;2023-04-24T05:54:58;2.97;;;2.27;;
15077;SDS011;7638;49.760;8.646;2023-04-24T05:57:24;3.17;;;2.50;;
15077;SDS011;7638;49.760;8.646;2023-04-24T05:59:50;2.73;;;2.27;;
15077;SDS011;7638;49.760;8.646;2023-04-24T06:02:16;2.63;;;2.23;;
15077;SDS011;7638;49.760;8.646;2023-04-24T06:04:42;3.70;;;2.50;;
15077;SDS011;7638;49.760;8.646;2023-04-24T06:07:10;2.20;;;2.00;;
15077;SDS011;7638;49.760;8.646;2023-04-24T06:09:36;3.53;;;2.80;;
15077;SDS011;7638;49.760;8.646;2023-04-24T06:12:02;3.20;;;2.43;;
15077;SDS011;7638;49.760;8.646;2023-04-24T06:14:28;4.77;;;3.17;;
15077;SDS011;7638;49.760;8.646;2023-04-24T06:16:54;3.83;;;2.30;;
15077;SDS011;7638;49.760;8.646;2023-04-24T06:19:20;3.00;;;2.53;;
15077;SDS011;7638;49.760;8.646;2023-04-24T06:21:46;2.73;;;2.40;;
15077;SDS011;7638;49.760;8.646;2023-04-24T06:24:14;4.23;;;2.53;;
15077;SDS011;7638;49.760;8.646;2023-04-24T06:26:43;4.83;;;2.93;;
15077;SDS011;7638;49.760;8.646;2023-04-24T06:29:09;7.17;;;3.10;;
15077;SDS011;7638;49.760;8.646;2023-04-24T06:31:40;9.20;;;3.50;;
15077;SDS011;7638;49.760;8.646;2023-04-24T06:34:06;3.77;;;3.10;;
15077;SDS011;7638;49.760;8.646;2023-04-24T06:36:32;5.23;;;3.20;;
15077;SDS011;7638;49.760;8.646;2023-04-24T06:39:00;3.33;;;3.03;;
15077;SDS011;7638;49.760;8.646;2023-04-24T06:41:26;3.33;;;3.00;;
15077;SDS011;7638;49.760;8.646;2023-04-24T06:43:52;3.97;;;3.13;;
15077;SDS011;7638;49.760;8.646;2023-04-24T06:46:18;3.10;;;2.67;;
15077;SDS011;7638;49.760;8.646;2023-04-24T06:48:47;5.23;;;3.20;;
15077;SDS011;7638;49.760;8.646;2023-04-24T06:51:13;2.97;;;2.70;;
15077;SDS011;7638;49.760;8.646;2023-04-24T06:53:39;4.53;;;3.97;;
15077;SDS011;7638;49.760;8.646;2023-04-24T06:56:05;3.37;;;3.07;;
15077;SDS011;7638;49.760;8.646;2023-04-24T06:58:31;5.80;;;3.70;;
15077;SDS011;7638;49.760;8.646;2023-04-24T07:00:57;7.23;;;3.50;;
15077;SDS011;7638;49.760;8.646;2023-04-24T07:03:23;7.43;;;3.53;;
15077;SDS011;7638;49.760;8.646;2023-04-24T07:05:52;5.37;;;3.80;;
15077;SDS011;7638;49.760;8.646;2023-04-24T07:08:18;6.87;;;3.17;;
15077;SDS011;7638;49.760;8.646;2023-04-24T07:10:45;4.93;;;3.47;;
15077;SDS011;7638;49.760;8.646;2023-04-24T07:13:11;4.07;;;3.43;;
15077;SDS011;7638;49.760;8.646;2023-04-24T07:15:37;5.07;;;3.43;;
15077;SDS011;7638;49.760;8.646;2023-04-24T07:18:04;4.37;;;3.00;;
15077;SDS011;7638;49.760;8.646;2023-04-24T07:20:30;5.93;;;3.10;;
15077;SDS011;7638;49.760;8.646;2023-04-24T07:22:56;3.30;;;3.00;;
15077;SDS011;7638;49.760;8.646;2023-04-24T07:25:22;3.07;;;2.60;;
15077;SDS011;7638;49.760;8.646;2023-04-24T07:27:48;5.87;;;3.03;;
15077;SDS011;7638;49.760;8.646;2023-04-24T07:30:15;4.33;;;2.57;;
15077;SDS011;7638;49.760;8.646;2023-04-24T07:32:41;6.67;;;3.00;;
15077;SDS011;7638;49.760;8.646;2023-04-24T07:35:07;2.40;;;2.20;;
15077;SDS011;7638;49.760;8.646;2023-04-24T07:37:34;3.17;;;2.30;;
15077;SDS011;7638;49.760;8.646;2023-04-24T07:40:00;4.23;;;2.77;;
15077;SDS011;7638;49.760;8.646;2023-04-24T07:42:27;2.70;;;2.47;;
15077;SDS011;7638;49.760;8.646;2023-04-24T07:44:55;5.07;;;2.40;;
15077;SDS011;7638;49.760;8.646;2023-04-24T07:47:21;2.57;;;2.37;;
15077;SDS011;7638;49.760;8.646;2023-04-24T07:49:47;4.40;;;2.60;;
15077;SDS011;7638;49.760;8.646;2023-04-24T07:52:13;2.50;;;2.30;;
15077;SDS011;7638;49.760;8.646;2023-04-24T07:54:40;3.37;;;2.20;;
15077;SDS011;7638;49.760;8.646;2023-04-24T07:57:07;3.70;;;2.90;;
15077;SDS011;7638;49.760;8.646;2023-04-24T07:59:33;2.77;;;2.47;;
15077;SDS011;7638;49.760;8.646;2023-04-24T08:02:00;3.53;;;2.53;;
15077;SDS011;7638;49.760;8.646;2023-04-24T08:04:26;3.33;;;2.70;;
15077;SDS011;7638;49.760;8.646;2023-04-24T08:06:52;2.80;;;2.13;;
15077;SDS011;7638;49.760;8.646;2023-04-24T08:09:18;1.87;;;1.67;;
15077;SDS011;7638;49.760;8.646;2023-04-24T08:11:45;3.20;;;1.83;;
15077;SDS011;7638;49.760;8.646;2023-04-24T08:14:11;2.47;;;1.50;;
15077;SDS011;7638;49.760;8.646;2023-04-24T08:16:38;2.10;;;1.57;;
15077;SDS011;7638;49.760;8.646;2023-04-24T08:19:04;2.23;;;1.70;;
15077;SDS011;7638;49.760;8.646;2023-04-24T08:21:30;1.60;;;1.50;;
15077;SDS011;7638;49.760;8.646;2023-04-24T08:23:56;2.67;;;1.60;;
15077;SDS011;7638;49.760;8.646;2023-04-24T08:26:22;2.40;;;2.10;;
15077;SDS011;7638;49.760;8.646;2023-04-24T08:28:48;1.80;;;1.70;;
15077;SDS011;7638;49.760;8.646;2023-04-24T08:31:14;4.00;;;2.30;;
15077;SDS011;7638;49.760;8.646;2023-04-24T08:33:40;2.23;;;1.80;;
15077;SDS011;7638;49.760;8.646;2023-04-24T08:36:07;3.50;;;1.70;;
15077;SDS011;7638;49.760;8.646;2023-04-24T08:38:33;2.60;;;1.90;;
15077;SDS011;7638;49.760;8.646;2023-04-24T08:41:00;2.73;;;1.90;;
15077;SDS011;7638;49.760;8.646;2023-04-24T08:43:26;2.50;;;2.03;;
15077;SDS011;7638;49.760;8.646;2023-04-24T08:45:52;4.97;;;2.13;;
15077;SDS011;7638;49.760;8.646;2023-04-24T08:48:18;2.27;;;2.07;;
15077;SDS011;7638;49.760;8.646;2023-04-24T08:50:46;4.03;;;2.60;;
15077;SDS011;7638;49.760;8.646;2023-04-24T08:53:13;6.93;;;1.90;;
15077;SDS011;7638;49.760;8.646;2023-04-24T08:55:39;2.30;;;2.00;;
15077;SDS011;7638;49.760;8.646;2023-04-24T08:58:06;6.43;;;1.80;;
15077;SDS011;7638;49.760;8.646;2023-04-24T09:00:32;2.20;;;2.00;;
15077;SDS011;7638;49.760;8.646;2023-04-24T09:02:59;2.40;;;2.10;;
15077;SDS011;7638;49.760;8.646;2023-04-24T09:05:26;2.10;;;1.90;;
15077;SDS011;7638;49.760;8.646;2023-04-24T09:07:53;2.40;;;2.20;;
15077;SDS011;7638;49.760;8.646;2023-04-24T09:10:20;2.17;;;1.90;;
15077;SDS011;7638;49.760;8.646;2023-04-24T09:12:47;4.23;;;1.87;;
15077;SDS011;7638;49.760;8.646;2023-04-24T09:15:13;2.30;;;1.70;;
15077;SDS011;7638;49.760;8.646;2023-04-24T09:17:40;2.47;;;2.10;;
15077;SDS011;7638;49.760;8.646;2023-04-24T09:20:06;3.00;;;2.37;;
15077;SDS011;7638;49.760;8.646;2023-04-24T09:22:32;2.57;;;2.37;;
15077;SDS011;7638;49.760;8.646;2023-04-24T09:25:02;5.23;;;2.30;;
15077;SDS011;7638;49.760;8.646;2023-04-24T09:27:29;4.40;;;2.30;;
15077;SDS011;7638;49.760;8.646;2023-04-24T09:29:56;4.03;;;2.00;;
15077;SDS011;7638;49.760;8.646;2023-04-24T09:32:22;1.93;;;1.83;;
15077;SDS011;7638;49.760;8.646;2023-04-24T09:35:04;2.73;;;2.07;;
15077;SDS011;7638;49.760;8.646;2023-04-24T09:37:34;3.13;;;2.10;;
15077;SDS011;7638;49.760;8.646;2023-04-24T09:40:12;2.40;;;2.10;;
15077;SDS011;7638;49.760;8.646;2023-04-24T09:42:39;6.67;;;2.27;;
15077;SDS011;7638;49.760;8.646;2023-04-24T09:45:08;3.23;;;2.40;;
15077;SDS011;7638;49.760;8.646;2023-04-24T09:47:36;2.93;;;2.60;;
15077;SDS011;7638;49.760;8.646;2023-04-24T09:50:12;2.53;;;2.10;;
15077;SDS011;7638;49.760;8.646;2023-04-24T09:52:42;4.00;;;2.37;;
15077;SDS011;7638;49.760;8.646;2023-04-24T09:55:12;3.40;;;2.57;;
15077;SDS011;7638;49.760;8.646;2023-04-24T09:57:54;3.53;;;2.50;;
15077;SDS011;7638;49.760;8.646;2023-04-24T10:00:28;3.00;;;2.23;;
15077;SDS011;7638;49.760;8.646;2023-04-24T10:03:03;3.33;;;2.03;;
15077;SDS011;7638;49.760;8.646;2023-04-24T10:05:34;4.23;;;2.20;;
15077;SDS011;7638;49.760;8.646;2023-04-24T10:10:26;2.10;;;1.90;;
15077;SDS011;7638;49.760;8.646;2023-04-24T10:12:52;2.87;;;2.00;;
15077;SDS011;7638;49.760;8.646;2023-04-24T10:15:19;2.40;;;1.90;;
15077;SDS011;7638;49.760;8.646;2023-04-24T10:17:49;2.13;;;1.67;;
15077;SDS011;7638;49.760;8.646;2023-04-24T10:20:19;3.10;;;2.13;;
15077;SDS011;7638;49.760;8.646;2023-04-24T10:22:47;2.17;;;1.73;;
15077;SDS011;7638;49.760;8.646;2023-04-24T10:25:15;3.63;;;1.53;;
15077;SDS011;7638;49.760;8.646;2023-04-24T10:27:42;3.83;;;1.90;;
15077;SDS011;7638;49.760;8.646;2023-04-24T10:30:08;1.90;;;1.60;;
15077;SDS011;7638;49.760;8.646;2023-04-24T10:32:36;1.60;;;1.50;;
15077;SDS011;7638;49.760;8.646;2023-04-24T10:35:02;4.83;;;1.63;;
15077;SDS011;7638;49.760;8.646;2023-04-24T10:37:28;3.67;;;1.73;;
15077;SDS011;7638;49.760;8.646;2023-04-24T10:39:55;2.37;;;2.07;;
15077;SDS011;7638;49.760;8.646;2023-04-24T10:42:21;2.50;;;1.93;;
15077;SDS011;7638;49.760;8.646;2023-04-24T10:44:47;4.10;;;1.60;;
15077;SDS011;7638;49.760;8.646;2023-04-24T10:47:14;2.40;;;1.70;;
15077;SDS011;7638;49.760;8.646;2023-04-24T10:49:40;2.43;;;1.77;;
15077;SDS011;7638;49.760;8.646;2023-04-24T10:52:06;2.03;;;1.83;;
15077;SDS011;7638;49.760;8.646;2023-04-24T10:54:35;3.53;;;1.80;;
15077;SDS011;7638;49.760;8.646;2023-04-24T10:59:44;5.03;;;2.23;;
15077;SDS011;7638;49.760;8.646;2023-04-24T11:02:10;3.83;;;1.60;;
15077;SDS011;7638;49.760;8.646;2023-04-24T11:04:37;2.73;;;1.90;;
15077;SDS011;7638;49.760;8.646;2023-04-24T11:07:03;2.33;;;1.77;;
15077;SDS011;7638;49.760;8.646;2023-04-24T11:09:32;3.80;;;2.00;;
15077;SDS011;7638;49.760;8.646;2023-04-24T11:12:06;1.90;;;1.67;;
15077;SDS011;7638;49.760;8.646;2023-04-24T11:17:29;2.70;;;2.10;;
15077;SDS011;7638;49.760;8.646;2023-04-24T11:20:00;2.53;;;2.07;;
15077;SDS011;7638;49.760;8.646;2023-04-24T11:22:26;1.87;;;1.77;;
15077;SDS011;7638;49.760;8.646;2023-04-24T11:24:54;2.17;;;1.97;;
15077;SDS011;7638;49.760;8.646;2023-04-24T11:27:21;4.53;;;2.03;;
15077;SDS011;7638;49.760;8.646;2023-04-24T11:32:30;3.27;;;1.80;;
15077;SDS011;7638;49.760;8.646;2023-04-24T11:37:26;4.50;;;2.50;;
15077;SDS011;7638;49.760;8.646;2023-04-24T11:39:53;3.00;;;2.17;;
15077;SDS011;7638;49.760;8.646;2023-04-24T11:42:21;4.53;;;2.03;;
15077;SDS011;7638;49.760;8.646;2023-04-24T11:44:48;4.10;;;2.43;;
15077;SDS011;7638;49.760;8.646;2023-04-24T11:47:14;2.87;;;2.07;;
15077;SDS011;7638;49.760;8.646;2023-04-24T11:49:40;2.93;;;2.27;;
15077;SDS011;7638;49.760;8.646;2023-04-24T11:52:06;4.60;;;2.13;;
15077;SDS011;7638;49.760;8.646;2023-04-24T11:54:33;3.67;;;2.10;;
15077;SDS011;7638;49.760;8.646;2023-04-24T11:56:59;3.57;;;2.23;;
15077;SDS011;7638;49.760;8.646;2023-04-24T11:59:29;2.73;;;2.53;;
15077;SDS011;7638;49.760;8.646;2023-04-24T12:01:55;2.27;;;2.07;;
15077;SDS011;7638;49.760;8.646;2023-04-24T12:04:21;2.93;;;2.67;;
15077;SDS011;7638;49.760;8.646;2023-04-24T12:07:03;4.63;;;2.50;;
15077;SDS011;7638;49.760;8.646;2023-04-24T12:09:54;3.03;;;2.33;;
15077;SDS011;7638;49.760;8.646;2023-04-24T12:12:16;3.60;;;2.27;;
15077;SDS011;7638;49.760;8.646;2023-04-24T12:14:43;2.33;;;2.10;;
15077;SDS011;7638;49.760;8.646;2023-04-24T12:17:09;6.93;;;2.87;;
15077;SDS011;7638;49.760;8.646;2023-04-24T12:19:36;6.13;;;3.27;;
15077;SDS011;7638;49.760;8.646;2023-04-24T12:22:02;5.20;;;2.30;;
15077;SDS011;7638;49.760;8.646;2023-04-24T12:24:30;5.23;;;2.67;;
15077;SDS011;7638;49.760;8.646;2023-04-24T12:26:56;2.73;;;2.00;;
15077;SDS011;7638;49.760;8.646;2023-04-24T12:29:22;2.87;;;2.60;;
15077;SDS011;7638;49.760;8.646;2023-04-24T12:31:49;3.17;;;2.40;;
15077;SDS011;7638;49.760;8.646;2023-04-24T12:34:22;6.10;;;2.90;;
15077;SDS011;7638;49.760;8.646;2023-04-24T12:36:48;3.77;;;2.97;;
15077;SDS011;7638;49.760;8.646;2023-04-24T12:39:18;3.70;;;2.80;;
15077;SDS011;7638;49.760;8.646;2023-04-24T12:42:25;5.47;;;2.77;;
15077;SDS011;7638;49.760;8.646;2023-04-24T12:44:37;6.57;;;2.80;;
15077;SDS011;7638;49.760;8.646;2023-04-24T12:47:03;3.13;;;2.17;;
15077;SDS011;7638;49.760;8.646;2023-04-24T12:49:29;5.23;;;2.40;;
15077;SDS011;7638;49.760;8.646;2023-04-24T12:51:56;3.43;;;2.50;;
15077;SDS011;7638;49.760;8.646;2023-04-24T12:54:22;4.90;;;2.57;;
15077;SDS011;7638;49.760;8.646;2023-04-24T12:56:48;3.53;;;2.60;;
15077;SDS011;7638;49.760;8.646;2023-04-24T12:59:16;2.67;;;2.13;;
15077;SDS011;7638;49.760;8.646;2023-04-24T13:01:42;3.07;;;2.40;;
15077;SDS011;7638;49.760;8.646;2023-04-24T13:04:08;7.37;;;2.77;;
15077;SDS011;7638;49.760;8.646;2023-04-24T13:06:35;2.93;;;2.60;;
15077;SDS011;7638;49.760;8.646;2023-04-24T13:09:01;4.30;;;2.03;;
15077;SDS011;7638;49.760;8.646;2023-04-24T13:11:27;2.67;;;2.47;;
15077;SDS011;7638;49.760;8.646;2023-04-24T13:13:53;4.37;;;2.37;;
15077;SDS011;7638;49.760;8.646;2023-04-24T13:16:19;6.57;;;2.40;;
15077;SDS011;7638;49.760;8.646;2023-04-24T13:18:45;4.80;;;2.23;;
15077;SDS011;7638;49.760;8.646;2023-04-24T13:21:11;5.27;;;2.60;;
15077;SDS011;7638;49.760;8.646;2023-04-24T13:23:37;4.37;;;2.73;;
15077;SDS011;7638;49.760;8.646;2023-04-24T13:26:03;3.30;;;2.30;;
15077;SDS011;7638;49.760;8.646;2023-04-24T13:28:29;4.00;;;2.60;;
15077;SDS011;7638;49.760;8.646;2023-04-24T13:30:57;4.80;;;2.67;;
15077;SDS011;7638;49.760;8.646;2023-04-24T13:33:23;3.17;;;2.40;;
15077;SDS011;7638;49.760;8.646;2023-04-24T13:35:49;3.50;;;2.20;;
15077;SDS011;7638;49.760;8.646;2023-04-24T13:38:15;3.20;;;2.20;;
15077;SDS011;7638;49.760;8.646;2023-04-24T13:40:41;3.20;;;2.23;;
15077;SDS011;7638;49.760;8.646;2023-04-24T13:43:07;2.87;;;2.40;;
15077;SDS011;7638;49.760;8.646;2023-04-24T13:45:34;6.23;;;2.40;;
15077;SDS011;7638;49.760;8.646;2023-04-24T13:48:00;2.70;;;2.40;;
15077;SDS011;7638;49.760;8.646;2023-04-24T13:50:28;4.67;;;2.77;;
15077;SDS011;7638;49.760;8.646;2023-04-24T13:52:54;2.33;;;2.13;;
15077;SDS011;7638;49.760;8.646;2023-04-24T13:55:21;2.47;;;2.17;;
15077;SDS011;7638;49.760;8.646;2023-04-24T13:57:47;5.47;;;2.33;;
15077;SDS011;7638;49.760;8.646;2023-04-24T14:00:13;4.50;;;2.23;;
15077;SDS011;7638;49.760;8.646;2023-04-24T14:02:40;2.27;;;1.80;;
15077;SDS011;7638;49.760;8.646;2023-04-24T14:05:06;7.57;;;2.47;;
15077;SDS011;7638;49.760;8.646;2023-04-24T14:07:34;5.37;;;2.43;;
15077;SDS011;7638;49.760;8.646;2023-04-24T14:10:03;3.70;;;2.60;;
15077;SDS011;7638;49.760;8.646;2023-04-24T14:12:29;6.40;;;2.60;;
15077;SDS011;7638;49.760;8.646;2023-04-24T14:14:55;4.23;;;2.27;;
15077;SDS011;7638;49.760;8.646;2023-04-24T14:17:22;3.23;;;2.53;;
15077;SDS011;7638;49.760;8.646;2023-04-24T14:19:48;3.83;;;3.20;;
15077;SDS011;7638;49.760;8.646;2023-04-24T14:22:14;2.13;;;1.90;;
15077;SDS011;7638;49.760;8.646;2023-04-24T14:24:40;2.70;;;2.13;;
15077;SDS011;7638;49.760;8.646;2023-04-24T14:27:06;3.10;;;1.93;;
15077;SDS011;7638;49.760;8.646;2023-04-24T14:29:32;2.33;;;2.13;;
15077;SDS011;7638;49.760;8.646;2023-04-24T14:31:58;7.40;;;2.33;;
15077;SDS011;7638;49.760;8.646;2023-04-24T14:34:24;4.47;;;2.30;;
15077;SDS011;7638;49.760;8.646;2023-04-24T14:36:50;2.23;;;2.03;;
15077;SDS011;7638;49.760;8.646;2023-04-24T14:39:16;3.93;;;2.60;;
15077;SDS011;7638;49.760;8.646;2023-04-24T14:41:42;2.80;;;1.83;;
15077;SDS011;7638;49.760;8.646;2023-04-24T14:44:08;5.67;;;2.03;;
15077;SDS011;7638;49.760;8.646;2023-04-24T14:46:35;2.50;;;2.03;;
15077;SDS011;7638;49.760;8.646;2023-04-24T14:49:01;4.63;;;2.63;;
15077;SDS011;7638;49.760;8.646;2023-04-24T14:51:27;2.17;;;1.77;;
15077;SDS011;7638;49.760;8.646;2023-04-24T14:53:53;2.73;;;2.20;;
15077;SDS011;7638;49.760;8.646;2023-04-24T14:56:19;5.03;;;2.00;;
15077;SDS011;7638;49.760;8.646;2023-04-24T14:58:45;3.07;;;2.23;;
15077;SDS011;7638;49.760;8.646;2023-04-24T15:01:12;3.10;;;2.03;;
15077;SDS011;7638;49.760;8.646;2023-04-24T15:03:38;3.50;;;2.10;;
15077;SDS011;7638;49.760;8.646;2023-04-24T15:06:04;2.20;;;1.97;;
15077;SDS011;7638;49.760;8.646;2023-04-24T15:08:30;4.77;;;2.30;;
15077;SDS011;7638;49.760;8.646;2023-04-24T15:10:56;2.27;;;2.07;;